Echague, Argentina
Current Conditions -  °F | °C
As of 5:00 AM on Friday 31 Oct 2014 (Local Time) from SAAR Reporting Station
Broken Clouds Broken Clouds  
Wind Chill: 20°   Ceiling: 10000
Heat Index: 20°   Visibility: 6mi
Dew Point: 16°   Wind: 6mph
Humidity: 78%   Direction: 90°E
Pressure: 29.83"   Gusts: NA
Location:  32.47°S, 59.31°W
Report Text: SAAR 310800Z 09005KT 9999 FEW025 BKN10020/16 Q1010
Loading
Personal Weather Stations






























Interactive Weather Map
Tropical Storm Tracking
New forecast layout! Learn more

10-Day Weather Forecast

Advertisements
Track Severe Weather on mobile